createdAt,value
2023-12-11T00:03:15.336Z,7.94
2023-12-11T00:08:16.952Z,7.89
2023-12-11T00:13:18.576Z,7.88
2023-12-11T00:18:20.248Z,7.82
2023-12-11T00:23:21.902Z,7.81
2023-12-11T00:28:23.539Z,7.85
2023-12-11T00:33:25.256Z,7.87
2023-12-11T00:38:26.874Z,7.87
2023-12-11T00:43:28.479Z,7.87
2023-12-11T00:48:46.223Z,7.89
2023-12-11T00:53:48.816Z,7.96
2023-12-11T00:58:50.408Z,8.01
2023-12-11T01:03:52.008Z,7.98
2023-12-11T01:08:53.586Z,7.99
2023-12-11T01:13:55.145Z,8.01
2023-12-11T01:18:56.847Z,8.04
2023-12-11T01:23:58.646Z,8.09
2023-12-11T01:29:00.241Z,8.07
2023-12-11T01:34:01.931Z,8.15
2023-12-11T01:39:04.023Z,8.28
2023-12-11T01:44:05.596Z,8.25
2023-12-11T01:49:07.372Z,8.20
2023-12-11T01:54:09.014Z,8.19
2023-12-11T01:59:11.190Z,8.32
2023-12-11T02:04:12.942Z,8.36
2023-12-11T02:09:14.773Z,8.32
2023-12-11T02:14:16.417Z,8.32
2023-12-11T02:19:18.140Z,8.38
2023-12-11T02:24:24.332Z,8.46
2023-12-11T02:29:25.985Z,8.41
2023-12-11T02:34:27.655Z,8.37
2023-12-11T02:39:29.277Z,8.40
2023-12-11T02:44:30.895Z,8.53
2023-12-11T02:49:32.575Z,8.57
2023-12-11T02:54:34.180Z,8.51
2023-12-11T02:59:35.810Z,8.50
2023-12-11T03:04:37.441Z,8.49
2023-12-11T03:09:39.107Z,8.60
2023-12-11T03:14:40.680Z,8.63
2023-12-11T03:19:42.399Z,8.59
2023-12-11T03:24:44.109Z,8.63
2023-12-11T03:29:45.710Z,8.68
2023-12-11T03:34:47.398Z,8.71
2023-12-11T03:39:49.132Z,8.61
2023-12-11T03:44:50.924Z,8.62
2023-12-11T03:49:52.850Z,8.68
2023-12-11T03:54:54.530Z,8.69
2023-12-11T03:59:56.122Z,8.56
2023-12-11T04:04:57.771Z,8.53
2023-12-11T04:09:59.532Z,8.62
2023-12-11T04:15:01.130Z,8.63
2023-12-11T04:20:03.099Z,8.52
2023-12-11T04:25:05.286Z,8.38
2023-12-11T04:30:07.401Z,8.39
2023-12-11T04:35:09.172Z,8.43
2023-12-11T04:40:11.385Z,8.34
2023-12-11T04:45:13.207Z,8.18
2023-12-11T04:50:14.907Z,8.16
2023-12-11T04:55:17.042Z,8.19
2023-12-11T05:00:19.570Z,8.20
2023-12-11T05:05:21.233Z,8.17
2023-12-11T05:10:22.918Z,8.15
2023-12-11T05:15:24.484Z,8.12
2023-12-11T05:20:26.028Z,8.20
2023-12-11T05:25:27.568Z,8.21
2023-12-11T05:30:29.264Z,8.15
2023-12-11T05:35:30.864Z,8.13
2023-12-11T05:40:32.524Z,8.16
2023-12-11T05:45:34.287Z,8.18
2023-12-11T05:50:37.135Z,8.08
2023-12-11T05:55:39.900Z,7.83
2023-12-11T06:00:41.658Z,7.72
2023-12-11T06:05:43.631Z,7.65
2023-12-11T06:10:45.281Z,7.61
2023-12-11T06:15:47.106Z,7.54
2023-12-11T06:20:49.050Z,7.55
2023-12-11T06:25:50.604Z,7.58
2023-12-11T06:30:52.467Z,7.52
2023-12-11T06:35:54.108Z,7.46
2023-12-11T06:40:55.679Z,7.53
2023-12-11T06:45:57.694Z,7.59
2023-12-11T06:50:59.249Z,7.59
2023-12-11T06:56:00.866Z,7.59
2023-12-11T07:01:02.567Z,7.60
2023-12-11T07:06:04.579Z,7.66
2023-12-11T07:11:06.314Z,7.68
2023-12-11T07:16:08.261Z,7.63
2023-12-11T07:21:10.752Z,7.68
2023-12-11T07:26:12.374Z,7.78
2023-12-11T07:31:14.076Z,7.81
2023-12-11T07:36:16.401Z,7.81
2023-12-11T07:41:24.638Z,7.83
2023-12-11T07:46:26.268Z,7.84
2023-12-11T07:51:29.264Z,7.94
2023-12-11T07:56:31.277Z,7.98
2023-12-11T08:01:33.188Z,7.99
2023-12-11T08:06:40.904Z,8.01
2023-12-11T08:11:42.404Z,7.99
2023-12-11T08:16:44.112Z,8.02
2023-12-11T08:21:45.746Z,8.01
2023-12-11T08:26:47.911Z,8.01
2023-12-11T08:31:50.257Z,8.03
2023-12-11T08:36:51.858Z,8.05
2023-12-11T08:41:53.487Z,8.11
2023-12-11T08:46:55.084Z,8.10
2023-12-11T08:51:56.803Z,8.01
2023-12-11T08:56:58.383Z,7.98
2023-12-11T09:02:00.096Z,8.01
2023-12-11T09:07:01.872Z,8.01
2023-12-11T09:12:03.637Z,8.01
2023-12-11T09:17:05.981Z,7.97
2023-12-11T09:22:07.633Z,7.89
2023-12-11T09:27:09.333Z,7.78
2023-12-11T09:32:10.916Z,7.73
2023-12-11T09:37:12.917Z,7.77
2023-12-11T09:42:15.335Z,7.80
2023-12-11T09:47:25.208Z,7.87
2023-12-11T09:52:28.748Z,7.89
2023-12-11T09:57:30.954Z,8.01
2023-12-11T10:02:32.928Z,8.03
2023-12-11T10:07:35.864Z,8.06
2023-12-11T10:12:43.309Z,8.06
2023-12-11T10:17:44.941Z,8.06
2023-12-11T10:22:49.392Z,7.84
2023-12-11T10:28:04.414Z,7.86
2023-12-11T10:33:06.207Z,8.06
2023-12-11T10:38:07.914Z,8.33
2023-12-11T10:43:09.587Z,8.43
2023-12-11T10:48:11.412Z,8.20
2023-12-11T10:53:13.394Z,8.08
2023-12-11T10:58:15.078Z,8.04
2023-12-11T11:03:18.050Z,8.14
2023-12-11T11:08:32.614Z,8.32
2023-12-11T11:13:50.021Z,8.50
2023-12-11T11:19:10.190Z,8.22
2023-12-11T11:24:34.292Z,8.07
2023-12-11T11:29:46.005Z,7.88
2023-12-11T11:34:47.787Z,7.79
2023-12-11T11:40:06.526Z,7.49
2023-12-11T11:45:09.095Z,7.48
2023-12-11T11:50:14.169Z,7.63
2023-12-11T11:55:22.084Z,7.84
2023-12-11T12:00:24.436Z,7.94
2023-12-11T12:05:27.534Z,8.10
2023-12-11T12:10:29.300Z,8.15
2023-12-11T12:15:31.138Z,8.06
2023-12-11T12:20:32.711Z,7.93
2023-12-11T12:25:35.694Z,7.85
2023-12-11T12:30:37.749Z,7.77
2023-12-11T12:35:40.411Z,7.73
2023-12-11T12:40:42.639Z,7.85
2023-12-11T12:45:44.859Z,7.99
2023-12-11T12:50:49.631Z,8.11
2023-12-11T12:55:52.214Z,8.16
2023-12-11T13:00:58.066Z,8.22
2023-12-11T13:06:00.690Z,8.15
2023-12-11T13:11:02.704Z,7.99
2023-12-11T13:16:07.467Z,7.85
2023-12-11T13:21:09.058Z,7.80
2023-12-11T13:26:10.614Z,7.76
2023-12-11T13:31:12.206Z,7.51
2023-12-11T13:36:17.274Z,7.17
2023-12-11T13:41:18.909Z,7.08
2023-12-11T13:46:20.574Z,6.95
2023-12-11T13:51:22.250Z,6.95
2023-12-11T13:56:23.809Z,6.94
2023-12-11T14:01:25.568Z,7.02
2023-12-11T14:06:28.213Z,7.14
2023-12-11T14:11:29.726Z,7.30
2023-12-11T14:16:33.034Z,7.33
2023-12-11T14:21:34.889Z,7.39
2023-12-11T14:26:43.640Z,7.41
2023-12-11T14:31:50.734Z,7.48
2023-12-11T14:36:52.402Z,7.50
2023-12-11T14:41:54.034Z,7.48
2023-12-11T14:46:55.581Z,7.51
2023-12-11T14:51:57.705Z,7.51
2023-12-11T14:57:00.052Z,7.56
2023-12-11T15:02:02.094Z,7.60
2023-12-11T15:07:05.430Z,7.63
2023-12-11T15:12:08.409Z,7.62
2023-12-11T15:17:13.002Z,7.54
2023-12-11T15:22:14.770Z,7.52
2023-12-11T15:27:16.403Z,7.53
2023-12-11T15:32:20.215Z,7.53
2023-12-11T15:37:23.083Z,7.52
2023-12-11T15:42:24.742Z,7.46
2023-12-11T15:47:26.307Z,7.46
2023-12-11T15:52:28.167Z,7.43
2023-12-11T15:57:34.561Z,7.39
2023-12-11T16:02:36.740Z,7.30
2023-12-11T16:07:38.409Z,7.33
2023-12-11T16:12:40.229Z,7.29
2023-12-11T16:17:41.873Z,7.30
2023-12-11T16:22:45.401Z,7.28
2023-12-11T16:27:47.514Z,7.22
2023-12-11T16:32:49.316Z,7.23
2023-12-11T16:37:52.367Z,7.29
2023-12-11T16:42:53.995Z,7.27
2023-12-11T16:47:56.057Z,7.25
2023-12-11T16:52:57.619Z,7.13
2023-12-11T16:57:59.195Z,6.98
2023-12-11T17:03:00.953Z,6.88
2023-12-11T17:08:02.759Z,6.90
2023-12-11T17:13:04.386Z,6.88
2023-12-11T17:18:09.079Z,6.79
2023-12-11T17:23:10.678Z,6.71
2023-12-11T17:28:12.235Z,6.59
2023-12-11T17:33:13.770Z,6.72
2023-12-11T17:38:15.397Z,6.73
2023-12-11T17:43:17.044Z,6.59
2023-12-11T17:48:18.699Z,6.55
2023-12-11T17:53:20.678Z,6.44
2023-12-11T17:58:22.465Z,6.31
2023-12-11T18:03:24.943Z,6.26
2023-12-11T18:08:26.530Z,6.23
2023-12-11T18:13:28.080Z,6.06
2023-12-11T18:18:31.950Z,5.94
2023-12-11T18:23:33.557Z,5.86
2023-12-11T18:28:35.197Z,5.75
2023-12-11T18:33:36.913Z,5.74
2023-12-11T18:38:38.521Z,5.68
2023-12-11T18:43:41.616Z,5.58
2023-12-11T18:48:43.326Z,5.51
2023-12-11T18:53:44.964Z,5.40
2023-12-11T18:58:47.487Z,5.26
2023-12-11T19:03:49.274Z,5.08
2023-12-11T19:08:50.951Z,5.03
2023-12-11T19:13:52.540Z,5.08
2023-12-11T19:18:54.270Z,5.04
2023-12-11T19:23:57.020Z,5.02
2023-12-11T19:28:58.628Z,4.95
2023-12-11T19:34:00.386Z,4.89
2023-12-11T19:39:02.049Z,4.84
2023-12-11T19:44:03.844Z,4.78
2023-12-11T19:49:05.504Z,4.79
2023-12-11T19:54:08.403Z,4.69
2023-12-11T19:59:10.347Z,4.61
2023-12-11T20:04:12.034Z,4.61
2023-12-11T20:09:13.785Z,4.57
2023-12-11T20:14:15.396Z,4.53
2023-12-11T20:19:16.988Z,4.51
2023-12-11T20:24:19.450Z,4.48
2023-12-11T20:29:21.269Z,4.57
2023-12-11T20:34:22.931Z,4.56
2023-12-11T20:39:24.526Z,4.46
2023-12-11T20:44:26.066Z,4.45
2023-12-11T20:49:27.699Z,4.43
2023-12-11T20:54:29.280Z,4.35
2023-12-11T20:59:30.863Z,4.25
2023-12-11T21:04:32.437Z,4.25
2023-12-11T21:09:34.013Z,4.23
2023-12-11T21:14:35.570Z,4.21
2023-12-11T21:19:37.223Z,4.21
2023-12-11T21:30:08.463Z,4.32
2023-12-11T21:35:10.028Z,4.34
2023-12-11T21:40:12.061Z,4.27
2023-12-11T21:45:13.632Z,4.25
2023-12-11T21:50:15.272Z,4.29
2023-12-11T21:55:16.887Z,4.29
2023-12-11T22:00:18.665Z,4.27
2023-12-11T22:05:20.294Z,4.19
2023-12-11T22:10:21.934Z,4.17
2023-12-11T22:15:23.516Z,4.22
2023-12-11T22:20:25.291Z,4.28
2023-12-11T22:25:26.832Z,4.35
2023-12-11T22:30:28.442Z,4.47
2023-12-11T22:35:30.001Z,4.58
2023-12-11T22:40:31.605Z,4.70
2023-12-11T22:45:33.149Z,4.84
2023-12-11T22:50:34.715Z,4.85
2023-12-11T22:55:36.336Z,4.81
2023-12-11T23:00:37.950Z,4.89
2023-12-11T23:05:39.607Z,5.03
2023-12-11T23:10:41.206Z,5.13
2023-12-11T23:15:42.771Z,5.07
2023-12-11T23:20:44.472Z,5.03
2023-12-11T23:25:54.501Z,5.02
2023-12-11T23:31:00.494Z,5.01
2023-12-11T23:36:02.075Z,4.99
2023-12-11T23:41:03.941Z,4.87
2023-12-11T23:46:05.525Z,4.81
2023-12-11T23:51:07.182Z,4.81
2023-12-11T23:56:09.220Z,4.93
